Flight Track Log - Related Links

Times and Time Zones

All times are in EDT time to prevent confusion due to time zone crossing. See the ACA301 flight status page for this flight to view local times or setup timezone preferences in your user account.

Time Position Orientation Groundspeed Altitude Reporting Facility
EDT Latitude Longitude Course Direction KTS MPH feet Rate Location/Type
Fri 06:06:03 AM 38.8833 -77.0500 333° Northwest 157 181 1,800  Level Potomac TRACON
Fri 06:08:00 AM 39.1681 -77.2052 330° Northwest  Level FlightAware Approximate
Fri 06:08:23 AM 38.9800 -77.1778 314° West 215 247 7,400  Level Washington Center
Fri 06:09:00 AM 39.2531 -77.2443 337° Northwest  Level FlightAware Approximate
Fri 06:09:21 AM 39.0122 -77.2639 296° West 240 276 9,000  Level Washington Center
Fri 06:10:00 AM 39.3366 -77.2907 337° Northwest  Level FlightAware Approximate
Fri 06:10:22 AM 39.0381 -77.3553 290° West 254 292 11,100  Level Washington Center
Fri 06:11:00 AM 39.4189 -77.3403 333° Northwest  Level FlightAware Approximate
Fri 06:11:23 AM 39.0825 -77.4472 302° West 278 320 12,800  Level Washington Center
Fri 06:12:21 AM 39.1783 -77.4578 355° North 290 334 14,900 1,930 Climbing Washington Center
Fri 06:14:42 AM 39.4131 -77.4572 360° North 365 420 19,200 1,800 Climbing New York Center
Fri 06:15:41 AM 39.5194 -77.4567 360° North 382 440 20,900 2,000 Climbing New York Center
Fri 06:16:42 AM 39.6300 -77.4564 360° North 387 445 23,200 2,100 Climbing New York Center
Fri 06:17:41 AM 39.7339 -77.4636 357° North 382 440 25,100 2,017 Climbing New York Center
Fri 06:18:41 AM 39.8319 -77.4972 345° North 377 434 27,200 2,281 Climbing New York Center
Fri 06:19:42 AM 39.9281 -77.5308 345° North 366 421 29,700 1,388 Climbing New York Center
Fri 06:20:42 AM 40.0181 -77.5639 344° North 354 407 30,000 151 Climbing New York Center
Fri 06:21:41 AM 40.1244 -77.5986 346° North 348 400 30,000  Level New York Center
Fri 06:22:42 AM 40.2142 -77.6319 344° North 348 400 30,000  Level New York Center
Fri 06:23:42 AM 40.3061 -77.6656 344° North 348 400 30,000  Level New York Center
Fri 06:24:43 AM 40.3981 -77.6992 344° North 348 400 30,000  Level New York Center
Fri 06:25:43 AM 40.4897 -77.7331 344° North 348 400 30,000  Level New York Center
Fri 06:26:40 AM 40.5836 -77.7672 345° North 348 400 30,000  Level New York Center
Fri 06:29:46 AM 40.8561 -77.8653 345° North 357 411 30,000  Level Cleveland Center
Fri 06:30:45 AM 40.9489 -77.9000 344° North 346 398 30,000  Level Cleveland Center
Fri 06:31:45 AM 41.0414 -77.9347 344° North 341 392 30,000  Level Cleveland Center
Fri 06:32:46 AM 41.1339 -77.9667 345° North 341 392 30,000  Level Cleveland Center
Fri 06:33:45 AM 41.2242 -77.9989 345° North 341 392 30,000  Level Cleveland Center
Fri 06:34:45 AM 41.3167 -78.0342 344° North 341 392 30,000  Level Cleveland Center
Fri 06:35:46 AM 41.4197 -78.0744 344° North 346 398 30,000  Level Cleveland Center
Fri 06:36:46 AM 41.5122 -78.1069 345° North 341 392 30,000  Level Cleveland Center
Fri 06:37:46 AM 41.6047 -78.1422 344° North 341 392 30,000  Level Cleveland Center
Fri 06:38:46 AM 41.6972 -78.1747 345° North 341 392 30,000 -450 Level Cleveland Center
Fri 06:39:46 AM 41.7894 -78.2103 344° North 341 392 29,100 -1,000 Descending Cleveland Center
Fri 06:40:46 AM 41.8819 -78.2461 344° North 341 392 28,000 -550 Descending Cleveland Center
Fri 06:41:46 AM 41.9744 -78.2817 344° North 341 392 28,000  Level Cleveland Center
Fri 06:42:46 AM 42.0711 -78.3175 345° North 341 392 28,000  Level Cleveland Center
Fri 06:43:46 AM 42.1636 -78.3533 344° North 341 392 28,000  Level Cleveland Center
Fri 06:44:46 AM 42.2539 -78.3867 345° North 348 400 28,000  Level Cleveland Center
Fri 06:45:46 AM 42.3483 -78.4228 344° North 348 400 28,000  Level Cleveland Center
Fri 06:46:46 AM 42.4447 -78.4589 345° North 348 400 28,000  Level Cleveland Center
Fri 06:47:46 AM 42.5394 -78.4978 343° North 348 400 28,000 -200 Level Cleveland Center
Fri 06:48:46 AM 42.6358 -78.5342 344° North 348 400 27,600 -700 Descending Cleveland Center
Fri 06:49:46 AM 42.7303 -78.5678 345° North 348 400 26,600 -1,000 Descending Cleveland Center
Fri 06:50:46 AM 42.8289 -78.6072 344° North 353 406 25,600 -1,550 Descending Cleveland Center
Fri 06:51:46 AM 42.9214 -78.6467 343° North 353 406 23,500 -1,850 Descending Cleveland Center
Fri 06:52:46 AM 42.9833 -78.7414 312° West 335 386 21,900 -1,617 Descending Cleveland Center
Fri 06:54:59 AM 43.1000 -78.9500 307° West 320 368 18,300 -1,554 Descending Toronto Center
Fri 06:55:59 AM 43.1500 -79.0333 309° West 310 357 16,900 -1,500 Descending Toronto Center
Fri 06:56:59 AM 43.2000 -79.1500 300° West 310 357 15,300 -1,500 Descending Toronto Center
Fri 06:57:59 AM 43.2333 -79.2167 304° West 300 345 13,900 -1,450 Descending Toronto Center
Fri 06:58:59 AM 43.2833 -79.3167 305° West 300 345 12,400 -1,500 Descending Toronto Center
Fri 06:59:59 AM 43.3667 -79.3500 344° North 300 345 10,900 -1,400 Descending Toronto Center
Fri 07:00:59 AM 43.4500 -79.4000 336° Northwest 300 345 9,600 -1,250 Descending Toronto Center
Fri 07:01:59 AM 43.5167 -79.4333 340° North 300 345 8,400 -1,100 Descending Toronto Center
Fri 07:02:59 AM 43.5667 -79.5167 310° West 260 299 7,400 -1,200 Descending Toronto Center
Fri 07:03:59 AM 43.5333 -79.5833 235° Southwest 240 276 6,000 -1,200 Descending Toronto Center
Fri 07:04:59 AM 43.5167 -79.6500 251° West 210 242 5,000 -1,300 Descending Toronto Center
Fri 07:05:59 AM 43.5667 -79.7000 324° Northwest 220 253 3,400 -1,450 Descending Toronto Center
Fri 07:06:59 AM 43.6000 -79.6500 47° Northeast 210 242 2,100 -1,250 Descending Toronto Center
Fri 07:07:59 AM 43.6333 -79.6167 36° Northeast 150 173 900 -1,200 Descending Toronto Center

Login

Don't have an account? Register now (free) for customized features, flight alerts, and more!